TFM - Tactical Decision Aid
ID: Runway Winds: CIG/VIS Threshold:

KLAX - Los Angeles Intl, CA, US

Updated at: 1119 UTC 15 Jul 2020
Latest TAF at: 0901 UTC 15 Jul 2020

TAF Board

Time1053Z 15/12Z 15/13Z 15/14Z 15/15Z 15/16Z 15/17Z 15/18Z 15/19Z 15/20Z 15/21Z 15/22Z 15/23Z 16/00Z>>
Type OBS PRVL PRVL PRVL PRVL PRVL PRVL PRVL PRVL PRVL PRVL PRVL PRVL PRVL
VIS 10 >6 >6 >6 >6 >6 >6 >6 >6 >6 >6 >6 >6 >6
CIG 15 12 12 12 12 12 -- -- -- -- -- -- -- --
Cover OVC OVC OVC OVC OVC OVC SCT SCT SCT SCT SKC SKC SKC SKC
FltCat MVFR MVFR MVFR MVFR MVFR MVFR VFR VFR VFR VFR VFR VFR VFR VFR
WX -- -- -- -- -- -- -- -- -- -- -- -- -- --
WDir VRB VRB VRB VRB VRB VRB 250 250 250 250 260 260 260 260
WSpd 3 3 3 3 3 3 8 8 8 8 12 12 12 12
WGst -- -- -- -- -- -- -- -- -- -- -- -- -- --

TDA Impact Legend

  None Marginal Slight Moderate High
Visibility (sm) >5 3≤X≤5 1≤X<3 0.5≤X<1 <0.5
Ceiling (100 ft) >30 10≤X≤30 4≤X<10 2≤X<4 <2
Wind Speed (kt) <15 15≤X<25 25≤X<30 ≥30
Wind Gust (kt) <15 15≤X<25 25≤X<35 ≥35
Weather No Wx Reported VCTS -TS,-FZRA TS,FZRA +TS,+FZRA
TAF
KLAX 150901Z 1509/1612 VRB03KT P6SM OVC012
  FM151700 25008KT P6SM SCT018
  FM152100 26012KT P6SM SKC
  FM160500 28008KT P6SM BKN010
  FM160800 VRB03KT P6SM BKN010


METAR
KLAX 151053Z VRB03KT 10SM FEW012 OVC015 18/14 A2994 RMK AO2 SLP134 T01830144 $
KLAX 150953Z 16005KT 10SM OVC012 18/14 A2994 RMK AO2 SLP136 T01830144 $
KLAX 150853Z 00000KT 10SM OVC012 18/14 A2995 RMK AO2 SLP139 T01830144 58003 $
KLAX 150753Z 23003KT 10SM OVC011 18/14 A2996 RMK AO2 SLP141 T01780144 402390172 $

Radar Display
Forecast Discussion